• Join FlightAware (Why Join?)
  • Login
  • US Flag 
10:36PM EDT


 

Airport Tracker/Info


-or-


 

Live Flight TrackerFlight Track Log ✈ DAL681 ✈ 27-Apr-2013 ✈ KATL - MDSD / SDQ

Flight Track Log - Related Links

Times and Time Zones

All times are in EDT time to prevent confusion due to time zone crossing. See the DAL681 flight status page for this flight to view local times or setup timezone preferences in your user account.

Time Position Orientation Groundspeed Altitude Reporting Facility
EDT Latitude Longitude Course Direction KTS MPH feet Rate Location/Type
10:46AM 33.6333 -84.4000 145° Southeast 163 188 2,200  Level Atlanta TRACON
10:47AM 33.6167 -84.3333 107° East 211 243 3,100 1,800 Climbing Atlanta TRACON
10:48AM 33.5667 -84.2833 140° Southeast 255 293 5,900 2,400 Climbing Atlanta TRACON
10:49AM 33.2617 -84.1448 140° Southeast  Level FlightAware Approximate
10:49AM 33.5000 -84.2833 180° South 274 315 8,200  Level Atlanta TRACON
10:50AM 33.1640 -84.0471 140° Southeast  Level FlightAware Approximate
10:51AM 33.0698 -83.9553 145° Southeast  Level FlightAware Approximate
10:51AM 33.3286 -84.2203 163° South 307 353 11,800  Level Atlanta Center
10:52AM 33.2472 -84.1381 140° Southeast 345 397 14,000 1,920 Climbing Atlanta Center
10:53AM 33.1639 -84.0561 141° Southeast 376 433 15,700 1,860 Climbing Atlanta Center
10:54AM 33.0761 -83.9719 141° Southeast 404 465 17,800 1,500 Climbing Atlanta Center
10:55AM 32.9822 -83.8928 145° Southeast 404 465 18,800 1,440 Climbing Atlanta Center
10:56AM 32.8839 -83.8136 146° Southeast 423 487 20,700 1,620 Climbing Atlanta Center
10:57AM 32.7856 -83.7300 144° Southeast 433 498 22,100 1,380 Climbing Atlanta Center
10:59AM 32.5678 -83.5236 141° Southeast 465 535 25,200 1,320 Climbing Jacksonville Center
11:00AM 32.4703 -83.4269 140° Southeast 465 535 26,400 960 Climbing Jacksonville Center
11:01AM 32.3703 -83.3281 140° Southeast 465 535 27,200 780 Climbing Jacksonville Center
11:02AM 32.2683 -83.2267 140° Southeast 472 543 28,000 900 Climbing Jacksonville Center
11:03AM 32.1558 -83.1158 140° Southeast 472 543 29,000 900 Climbing Jacksonville Center
11:04AM 32.0517 -83.0128 140° Southeast 479 551 29,900 900 Climbing Jacksonville Center
11:05AM 31.9472 -82.9122 141° Southeast 484 557 30,900 1,020 Climbing Jacksonville Center
11:06AM 31.8492 -82.8069 138° Southeast 484 557 32,000 960 Climbing Jacksonville Center
11:07AM 31.7364 -82.7217 147° Southeast 478 550 32,900 780 Climbing Jacksonville Center
11:08AM 31.6256 -82.6461 150° Southeast 473 544 33,600 540 Climbing Jacksonville Center
11:09AM 31.5106 -82.5683 150° Southeast 468 539 34,000 180 Climbing Jacksonville Center
11:10AM 31.3956 -82.4911 150° Southeast 475 547 34,000  Level Jacksonville Center
11:11AM 31.2908 -82.4233 151° Southeast 475 547 34,000 -60 Level Jacksonville Center
11:12AM 31.1756 -82.3461 150° Southeast 481 554 33,900 -60 Descending Jacksonville Center
11:13AM 31.0583 -82.2692 151° Southeast 481 554 33,900  Level Jacksonville Center
11:14AM 30.9431 -82.1925 150° Southeast 481 554 34,000  Climbing Jacksonville Center
11:15AM 30.8278 -82.1136 150° Southeast 481 554 34,000 -60 Level Jacksonville Center
11:16AM 30.7125 -82.0372 150° Southeast 481 554 33,900 -60 Descending Jacksonville Center
11:17AM 30.5992 -81.9608 150° Southeast 481 554 33,900  Level Jacksonville Center
11:18AM 30.4839 -81.8778 148° Southeast 481 554 34,000  Climbing Jacksonville Center
11:19AM 30.3664 -81.8019 151° Southeast 486 559 34,000  Level Jacksonville Center
11:20AM 30.2486 -81.7264 151° Southeast 486 559 34,000  Level Jacksonville Center
11:21AM 30.1206 -81.6461 152° Southeast 480 552 34,000  Level Jacksonville Center
11:22AM 30.0050 -81.5711 151° Southeast 480 552 34,000  Level Jacksonville Center
11:23AM 29.8892 -81.4936 150° Southeast 480 552 34,000  Level Jacksonville Center
11:24AM 29.7736 -81.4114 148° Southeast 480 552 34,000  Level Jacksonville Center
11:25AM 29.6661 -81.3197 143° Southeast 485 558 34,000  Level Jacksonville Center
11:26AM 29.5606 -81.2261 142° Southeast 485 558 34,000  Level Jacksonville Center
11:27AM 29.4547 -81.1325 142° Southeast 485 558 34,000  Level Jacksonville Center
11:30AM 29.1722 -80.8989 144° Southeast 473 544 34,000 -60 Level Miami Center
11:31AM 29.0644 -80.8025 142° Southeast 480 552 33,900 -60 Descending Miami Center
11:32AM 28.9564 -80.7108 143° Southeast 486 559 33,900  Level Miami Center
11:33AM 28.8525 -80.6125 140° Southeast 486 559 34,000  Climbing Miami Center
11:34AM 28.7694 -80.5150 134° Southeast 486 559 34,000  Level Miami Center
11:35AM 28.6789 -80.3794 127° Southeast 486 559 34,000  Level Miami Center
11:36AM 28.6022 -80.2706 129° Southeast 486 559 34,000  Level Miami Center
11:37AM 28.5175 -80.1522 129° Southeast 486 559 34,000  Level Miami Center
11:38AM 28.4244 -80.0222 129° Southeast 479 551 34,000  Level Miami Center
11:39AM 28.3394 -79.9017 129° Southeast 486 559 34,000  Level Miami Center
11:40AM 28.2542 -79.7817 129° Southeast 486 559 34,000  Level Miami Center
11:41AM 28.1711 -79.6617 128° Southeast 486 559 34,000  Level Miami Center
11:42AM 28.0836 -79.5419 130° Southeast 486 559 34,000  Level Miami Center
11:43AM 27.9981 -79.4222 129° Southeast 486 559 34,000 -60 Level Miami Center
11:44AM 27.9144 -79.3053 129° Southeast 486 559 33,900  Descending Miami Center
11:45AM 27.8286 -79.1906 130° Southeast 477 549 34,000  Climbing Miami Center
11:46AM 27.7553 -79.0858 128° Southeast 477 549 34,000  Level Miami Center
11:47AM 27.6672 -78.9669 130° Southeast 485 558 34,000 180 Level Miami Center
11:48AM 27.5750 -78.8386 129° Southeast 485 558 34,400 420 Climbing Miami Center
11:49AM 27.4889 -78.7225 130° Southeast 485 558 34,900 300 Climbing Miami Center
11:50AM 27.3986 -78.5994 130° Southeast 485 558 35,000  Climbing Miami Center
11:51AM 27.3142 -78.4836 129° Southeast 485 558 34,900  Descending Miami Center
11:52AM 27.2442 -78.3914 130° Southeast 485 558 35,000  Climbing Miami Center
11:53AM 27.1325 -78.2781 138° Southeast 485 558 35,000  Level Miami Center
11:54AM 27.0417 -78.1556 130° Southeast 490 564 35,000  Level Miami Center
11:55AM 26.9467 -78.0519 136° Southeast 490 564 35,000  Level Miami Center
11:56AM 26.8472 -77.9253 131° Southeast 490 564 35,000  Level Miami Center
11:57AM 26.7542 -77.8172 134° Southeast 485 558 35,000  Level Miami Center
11:58AM 26.6608 -77.7025 132° Southeast 490 564 35,000  Level Miami Center
11:59AM 26.5672 -77.5906 133° Southeast 490 564 35,000  Level Miami Center
12:00PM 26.4781 -77.4808 132° Southeast 483 556 35,000  Level Miami Center
12:01PM 26.3928 -77.3806 134° Southeast 489 563 35,000  Level Miami Center
12:02PM 26.2992 -77.2689 133° Southeast 489 563 35,000  Level Miami Center
12:03PM 26.2053 -77.1575 133° Southeast 489 563 35,000  Level Miami Center
12:04PM 26.1136 -77.0508 134° Southeast 489 563 35,000  Level Miami Center
12:05PM 26.0194 -76.9419 134° Southeast 484 557 35,000  Level Miami Center
12:06PM 25.9275 -76.8311 133° Southeast 489 563 35,000  Level Miami Center
12:07PM 25.8336 -76.7225 134° Southeast 482 555 35,000  Level Miami Center
12:08PM 25.7394 -76.6142 134° Southeast 482 555 35,000  Level Miami Center
12:09PM 25.6431 -76.5014 133° Southeast 488 562 35,000  Level Miami Center
12:10PM 25.5508 -76.3958 134° Southeast 488 562 35,000  Level Miami Center
12:11PM 25.4564 -76.2856 133° Southeast 483 556 35,000  Level Miami Center
12:12PM 25.3617 -76.1756 134° Southeast 489 563 35,000  Level Miami Center
12:13PM 25.2692 -76.0683 134° Southeast 489 563 35,000  Level Miami Center
12:14PM 25.1725 -75.9586 134° Southeast 489 563 35,000  Level Miami Center
12:15PM 25.0800 -75.8514 134° Southeast 489 563 35,000  Level Miami Center
12:16PM 24.9744 -75.7378 136° Southeast 478 550 35,000  Level Miami Center
12:17PM 24.8944 -75.6422 133° Southeast 478 550 35,000  Level Miami Center
12:18PM 24.7994 -75.5378 135° Southeast 478 550 35,000  Level Miami Center
12:19PM 24.7064 -75.4314 134° Southeast 478 550 35,000  Level Miami Center
12:20PM 24.6114 -75.3228 134° Southeast 478 550 35,000  Level Miami Center
12:21PM 24.5183 -75.2189 135° Southeast 478 550 35,000  Level Miami Center
12:22PM 24.4250 -75.1083 133° Southeast 478 550 35,000  Level Miami Center
12:23PM 24.3297 -75.0025 135° Southeast 478 550 35,000 120 Level Miami Center
12:24PM 24.2344 -74.8967 135° Southeast 478 550 35,300 420 Climbing Miami Center
12:25PM 24.1408 -74.7911 134° Southeast 478 550 35,900 780 Climbing Miami Center
12:26PM 24.0475 -74.6858 134° Southeast 478 550 36,900 540 Climbing Miami Center
12:27PM 23.9539 -74.5828 135° Southeast 478 550 37,000  Climbing Miami Center
12:28PM 23.8625 -74.4778 134° Southeast 473 544 37,000  Level Miami Center
12:29PM 23.7669 -74.3750 135° Southeast 473 544 37,000  Level Miami Center
12:30PM 23.6711 -74.2703 135° Southeast 479 551 37,000  Level Miami Center
12:31PM 23.5814 -74.1703 134° Southeast 472 543 37,000  Level Miami Center
12:32PM 23.4878 -74.0681 135° Southeast 472 543 37,000  Level Miami Center
12:33PM 23.3939 -73.9636 134° Southeast 472 543 37,000  Level Miami Center
12:34PM 23.3019 -73.8594 134° Southeast 477 549 37,000  Level Miami Center
12:35PM 23.2058 -73.7578 136° Southeast 477 549 37,000  Level Miami Center
12:36PM 23.1053 -73.6472 135° Southeast 472 543 37,000  Level Miami Center
12:37PM 23.0111 -73.5436 135° Southeast 472 543 37,000  Level Miami Center
12:38PM 22.9108 -73.4425 137° Southeast 477 549 37,000  Level Miami Center
12:39PM 22.8206 -73.3367 133° Southeast 477 549 37,000  Level Miami Center
12:40PM 22.7242 -73.2358 136° Southeast 477 549 37,000  Level Miami Center
12:41PM 22.6450 -73.1525 136° Southeast 477 549 37,000  Level Miami Center
12:42PM 22.5442 -73.0408 134° Southeast 477 549 37,000  Level Miami Center
12:43PM 22.4453 -72.9381 136° Southeast 482 555 37,000  Level Miami Center
12:44PM 22.3508 -72.8333 134° Southeast 482 555 37,000  Level Miami Center
12:45PM 22.2542 -72.7308 136° Southeast 482 555 37,000  Level Miami Center
12:46PM 22.1594 -72.6283 135° Southeast 482 555 37,000  Level Miami Center
12:47PM 22.0647 -72.5261 135° Southeast 482 555 37,000  Level Miami Center
12:48PM 21.9658 -72.4242 136° Southeast 482 555 37,000  Level Miami Center
12:49PM 21.8708 -72.3200 134° Southeast 482 555 37,000  Level Miami Center
12:50PM 21.7758 -72.2183 135° Southeast 482 555 37,000  Level Miami Center
12:51PM 21.6789 -72.1189 136° Southeast 482 555 37,000  Level Miami Center
12:52PM 21.5819 -72.0175 136° Southeast 482 555 37,000  Level Miami Center
12:53PM 21.4825 -71.9119 135° Southeast 487 560 37,000  Level Miami Center
12:54PM 21.3853 -71.8086 135° Southeast 487 560 37,000  Level Miami Center
12:55PM 21.2839 -71.7056 137° Southeast 487 560 37,000  Level Miami Center
12:56PM 21.1864 -71.6003 135° Southeast 492 566 37,000  Level Miami Center
12:57PM 21.0869 -71.4997 137° Southeast 492 566 37,000  Level Miami Center
12:58PM 20.9764 -71.3819 135° Southeast 500 575 37,000  Level Miami Center
12:59PM 20.8769 -71.2794 136° Southeast 500 575 37,000  Level Miami Center
01:00PM 20.7794 -71.1794 136° Southeast 500 575 37,000  Level Miami Center
01:01PM 20.6797 -71.0750 136° Southeast 500 575 37,000  Level Miami Center
01:02PM 20.5797 -70.9708 136° Southeast 500 575 37,000  Level Miami Center
01:03PM 20.4822 -70.8708 136° Southeast 500 575 37,000  Level Miami Center
01:05PM 20.3336 -70.7626 167° South  Level FlightAware Approximate
01:12PM 19.5826 -70.3491 131° Southeast  Level FlightAware Approximate
01:13PM 19.4996 -70.2495 128° Southeast  Level FlightAware Approximate
01:14PM 19.4218 -70.1455 128° Southeast  Level FlightAware Approximate
01:15PM 19.3438 -70.0416 128° Southeast  Level FlightAware Approximate
01:16PM 19.2658 -69.9377 128° Southeast  Level FlightAware Approximate
01:17PM 19.1544 -69.8863 164° South  Level FlightAware Approximate
01:18PM 19.0338 -69.8502 164° South  Level FlightAware Approximate
01:19PM 18.9136 -69.8131 164° South  Level FlightAware Approximate
01:20PM 18.7935 -69.7756 162° South  Level FlightAware Approximate
01:21PM 18.6740 -69.7358 162° South  Level FlightAware Approximate
01:22PM 18.5554 -69.6944 169° South  Level FlightAware Approximate
01:23PM 18.4356 -69.6576 159° South  Level FlightAware Approximate
01:24PM 18.4297 -69.6689 159° South  Level Estimated
01:25PM 18.4297 -69.6689 159° South  Level Estimated
01:26PM 18.4297 -69.6689 159° South  Level Estimated
01:27PM 18.4297 -69.6689 159° South  Level Estimated
01:28PM 18.4297 -69.6689 159° South  Level Estimated
01:29PM 18.4297 -69.6689 159° South  Level Estimated
01:30PM 18.4297 -69.6689 159° South  Level Estimated